Time;durP1;ratioP1;P1;durP2;ratioP2;P2;SDS_P1;SDS_P2;PMS_P1;PMS_P2;Temp;Humidity;BMP_temperature;BMP_pressure;BME280_temperature;BME280_humidity;BME280_pressure;Samples;Min_cycle;Max_cycle;Signal;HPM_P1;HPM_P2
2021/08/03 00:01:51;;;;;;;3.95;0.90;;;17.50;99.90;;;;;;4856873;29;20050;-74
2021/08/03 00:04:20;;;;;;;2.20;1.25;;;17.50;99.90;;;;;;4857054;29;20124;-74
2021/08/03 00:06:50;;;;;;;2.85;1.20;;;17.40;99.90;;;;;;4857445;29;20041;-74
2021/08/03 00:09:17;;;;;;;2.67;1.20;;;17.40;99.90;;;;;;4857496;29;20145;-74
2021/08/03 00:11:44;;;;;;;3.95;1.25;;;17.40;99.90;;;;;;4857441;29;20744;-74
2021/08/03 00:14:10;;;;;;;2.80;1.13;;;17.30;99.90;;;;;;4856473;29;20053;-74
2021/08/03 00:16:39;;;;;;;4.35;1.00;;;17.30;99.90;;;;;;4840487;29;20404;-74
2021/08/03 00:19:05;;;;;;;2.72;1.13;;;17.20;99.90;;;;;;4857501;29;20053;-74
2021/08/03 00:21:32;;;;;;;5.07;1.70;;;17.20;99.90;;;;;;4857457;29;20624;-74
2021/08/03 00:23:58;;;;;;;2.00;1.00;;;17.20;99.90;;;;;;4856777;29;20516;-74
2021/08/03 00:26:24;;;;;;;3.70;0.80;;;17.20;99.90;;;;;;4856919;29;20125;-74
2021/08/03 00:28:50;;;;;;;2.05;0.90;;;17.20;99.90;;;;;;4857292;29;20517;-74
2021/08/03 00:31:18;;;;;;;5.03;1.27;;;17.20;99.90;;;;;;4856815;29;20038;-74
2021/08/03 00:33:46;;;;;;;1.88;0.98;;;17.20;99.90;;;;;;4856521;29;20049;-74
2021/08/03 00:36:13;;;;;;;2.33;1.08;;;17.20;99.90;;;;;;4856345;29;20033;-74
2021/08/03 00:38:39;;;;;;;2.90;1.10;;;17.20;99.90;;;;;;4856717;29;20057;-74
2021/08/03 00:41:09;;;;;;;3.38;0.90;;;17.10;99.90;;;;;;4855517;29;20041;-74
2021/08/03 00:43:35;;;;;;;2.83;1.33;;;17.00;99.90;;;;;;4851492;29;20071;-74
2021/08/03 00:46:01;;;;;;;2.30;1.02;;;16.90;99.90;;;;;;4855722;29;20527;-74
2021/08/03 00:48:26;;;;;;;3.17;1.10;;;16.70;99.90;;;;;;4855038;29;20050;-74
2021/08/03 00:50:52;;;;;;;1.92;1.00;;;16.70;99.90;;;;;;4855339;29;20457;-74
2021/08/03 00:53:18;;;;;;;4.82;1.60;;;16.70;99.90;;;;;;4854715;29;20050;-74
2021/08/03 00:55:44;;;;;;;2.83;0.95;;;16.70;99.90;;;;;;4855072;29;20042;-74
2021/08/03 00:58:11;;;;;;;2.70;0.90;;;16.80;99.90;;;;;;4854687;29;20051;-74
2021/08/03 01:00:37;;;;;;;2.35;1.30;;;16.80;99.90;;;;;;4855963;29;20029;-74
2021/08/03 01:03:03;;;;;;;5.97;1.58;;;16.90;99.90;;;;;;4855670;29;20484;-74
2021/08/03 01:05:47;;;;;;;2.67;1.00;;;16.80;99.90;;;;;;4839710;29;20053;-74
2021/08/03 01:08:35;;;;;;;2.63;1.05;;;16.80;99.90;;;;;;4855152;29;20053;-74
2021/08/03 01:11:14;;;;;;;3.38;1.15;;;16.70;99.90;;;;;;4856557;29;20049;-74
2021/08/03 01:14:07;;;;;;;4.00;1.73;;;16.80;99.90;;;;;;4855743;29;20041;-74
2021/08/03 01:16:50;;;;;;;6.70;1.80;;;16.70;99.90;;;;;;4856431;29;20122;-74
2021/08/03 01:19:22;;;;;;;2.85;1.30;;;16.60;99.90;;;;;;4856770;29;20092;-74
2021/08/03 01:22:03;;;;;;;2.17;1.00;;;16.60;99.90;;;;;;4856273;29;20049;-74
2021/08/03 01:24:49;;;;;;;2.13;1.08;;;16.60;99.90;;;;;;4855964;29;20160;-74
2021/08/03 01:27:42;;;;;;;2.80;1.20;;;16.60;99.90;;;;;;4855983;29;20190;-74
2021/08/03 01:30:08;;;;;;;2.53;1.05;;;16.60;99.90;;;;;;4855892;29;20045;-74
2021/08/03 01:32:39;;;;;;;3.28;1.50;;;16.60;99.90;;;;;;4856226;29;20045;-74
2021/08/03 01:35:06;;;;;;;3.60;1.33;;;16.50;99.90;;;;;;4855640;29;20354;-74
2021/08/03 01:37:33;;;;;;;2.92;1.17;;;16.50;99.90;;;;;;4855916;29;20065;-74
2021/08/03 01:40:03;;;;;;;5.00;1.40;;;16.40;99.90;;;;;;4856096;29;20413;-74
2021/08/03 01:42:30;;;;;;;2.22;1.10;;;16.40;99.90;;;;;;4854148;29;20600;-74
2021/08/03 01:44:59;;;;;;;3.55;1.40;;;16.30;99.90;;;;;;4855420;29;20120;-74
2021/08/03 01:47:26;;;;;;;2.97;1.48;;;16.30;99.90;;;;;;4854473;29;20040;-74
2021/08/03 01:49:54;;;;;;;9.18;1.38;;;16.30;99.90;;;;;;4853344;29;20126;-74
2021/08/03 01:52:21;;;;;;;2.85;1.42;;;16.30;99.90;;;;;;4854346;29;20049;-74
2021/08/03 01:54:48;;;;;;;4.25;1.00;;;16.20;99.90;;;;;;4853410;29;20049;-74
2021/08/03 01:57:16;;;;;;;2.55;1.30;;;16.20;99.90;;;;;;4853748;29;20076;-74
2021/08/03 01:59:44;;;;;;;5.15;1.60;;;16.20;99.90;;;;;;4853733;29;20053;-74
2021/08/03 02:02:10;;;;;;;5.97;1.45;;;16.30;99.90;;;;;;4857561;29;20038;-74
2021/08/03 02:04:38;;;;;;;3.88;1.45;;;16.30;99.90;;;;;;4857841;29;20029;-74
2021/08/03 02:07:05;;;;;;;4.50;1.40;;;16.30;99.90;;;;;;4857907;29;20097;-74
2021/08/03 02:09:34;;;;;;;2.90;1.23;;;16.40;99.90;;;;;;4859669;29;20443;-74
2021/08/03 02:12:00;;;;;;;5.80;1.20;;;16.40;99.90;;;;;;4859510;29;20083;-74
2021/08/03 02:14:25;;;;;;;3.17;1.23;;;16.50;99.90;;;;;;4858862;29;20124;-74
2021/08/03 02:16:52;;;;;;;4.95;2.00;;;16.50;99.90;;;;;;4857870;29;20544;-74
2021/08/03 02:19:17;;;;;;;3.25;1.08;;;16.40;99.90;;;;;;4858463;29;20049;-74
2021/08/03 02:21:45;;;;;;;3.50;1.20;;;16.50;99.90;;;;;;4858475;29;20037;-74
2021/08/03 02:24:11;;;;;;;2.63;1.30;;;16.50;99.90;;;;;;4842810;29;20486;-74
2021/08/03 02:26:36;;;;;;;3.58;1.00;;;16.30;99.90;;;;;;4858683;29;20114;-74
2021/08/03 02:29:04;;;;;;;3.28;1.30;;;16.20;99.90;;;;;;4859141;29;20052;-74
2021/08/03 02:31:46;;;;;;;3.25;1.40;;;16.20;99.90;;;;;;4859248;29;20116;-74
2021/08/03 02:34:25;;;;;;;4.70;1.85;;;16.10;99.90;;;;;;4859042;29;20040;-74
2021/08/03 02:36:56;;;;;;;4.10;1.50;;;16.20;99.90;;;;;;4858422;29;20041;-74
2021/08/03 02:39:23;;;;;;;2.67;1.35;;;16.10;99.90;;;;;;4858815;29;20108;-74
2021/08/03 02:41:50;;;;;;;2.92;1.13;;;16.10;99.90;;;;;;4858795;29;20038;-74
2021/08/03 02:44:18;;;;;;;3.28;1.10;;;16.40;99.90;;;;;;4857547;29;20045;-74
2021/08/03 02:46:46;;;;;;;5.40;2.05;;;16.30;99.90;;;;;;4857637;29;20045;-74
2021/08/03 02:49:16;;;;;;;3.60;1.48;;;16.10;99.90;;;;;;4857166;29;20139;-74
2021/08/03 02:51:43;;;;;;;4.50;1.55;;;16.00;99.90;;;;;;4839066;29;20038;-74
2021/08/03 02:54:26;;;;;;;12.02;1.83;;;16.00;99.90;;;;;;4837680;29;20389;-74
2021/08/03 02:56:55;;;;;;;3.25;1.52;;;15.90;99.90;;;;;;4849074;29;20179;-74
2021/08/03 02:59:22;;;;;;;4.30;1.70;;;15.80;99.90;;;;;;4856678;29;20037;-74
2021/08/03 03:01:48;;;;;;;5.47;2.38;;;15.70;99.90;;;;;;4856870;29;20064;-74
2021/08/03 03:04:25;;;;;;;5.03;2.63;;;15.70;99.90;;;;;;4855855;29;20512;-74
2021/08/03 03:07:11;;;;;;;6.45;3.08;;;15.70;99.90;;;;;;4855883;29;20042;-74
2021/08/03 03:09:39;;;;;;;4.00;1.88;;;15.60;99.90;;;;;;4855906;29;20133;-74
2021/08/03 03:12:07;;;;;;;9.80;3.00;;;15.50;99.90;;;;;;4856203;29;20049;-74
2021/08/03 03:14:36;;;;;;;6.32;3.25;;;15.50;99.90;;;;;;4856485;29;20505;-74
2021/08/03 03:17:03;;;;;;;6.28;3.55;;;15.50;99.90;;;;;;4855099;29;20042;-74
2021/08/03 03:19:33;;;;;;;10.68;4.00;;;15.40;99.90;;;;;;4855918;29;20037;-74
2021/08/03 03:22:03;;;;;;;6.90;4.13;;;15.40;99.90;;;;;;4856064;29;20034;-74
2021/08/03 03:24:34;;;;;;;7.20;4.05;;;15.30;99.90;;;;;;4856116;29;20164;-74
2021/08/03 03:27:02;;;;;;;7.40;3.63;;;15.30;99.90;;;;;;4855734;29;20042;-74
2021/08/03 03:29:28;;;;;;;6.93;4.43;;;15.20;99.90;;;;;;4855691;29;20481;-74
2021/08/03 03:31:56;;;;;;;6.63;4.35;;;15.30;99.90;;;;;;4855720;29;20112;-74
2021/08/03 03:34:24;;;;;;;5.90;3.80;;;15.30;99.90;;;;;;4840787;29;20497;-74
2021/08/03 03:36:51;;;;;;;7.75;3.85;;;15.30;99.90;;;;;;4858734;29;20583;-74
2021/08/03 03:39:17;;;;;;;7.78;4.65;;;15.30;99.90;;;;;;4858981;29;20044;-74
2021/08/03 03:41:45;;;;;;;7.38;4.28;;;15.30;99.90;;;;;;4859098;29;20138;-74
2021/08/03 03:44:11;;;;;;;6.78;4.25;;;15.30;99.90;;;;;;4857757;29;20505;-74
2021/08/03 03:46:43;;;;;;;8.27;4.38;;;15.30;99.90;;;;;;4858936;29;20183;-74
2021/08/03 03:49:11;;;;;;;7.85;4.53;;;15.30;99.90;;;;;;4857168;29;20053;-74
2021/08/03 03:51:42;;;;;;;6.28;4.07;;;15.30;99.90;;;;;;4857382;29;20083;-73
2021/08/03 03:54:10;;;;;;;9.23;4.32;;;15.30;99.90;;;;;;4857208;29;20069;-74
2021/08/03 03:56:48;;;;;;;11.55;4.47;;;15.30;99.90;;;;;;4857980;29;20424;-74
2021/08/03 03:59:19;;;;;;;7.85;4.82;;;15.30;99.90;;;;;;4856473;29;20052;-74
2021/08/03 04:01:52;;;;;;;6.82;4.50;;;15.30;99.90;;;;;;4857292;29;20045;-74
2021/08/03 04:04:19;;;;;;;7.70;4.70;;;15.30;99.90;;;;;;4858555;29;20094;-74
2021/08/03 04:06:45;;;;;;;7.18;4.80;;;15.20;99.90;;;;;;4859487;29;20073;-74
2021/08/03 04:09:24;;;;;;;9.20;4.75;;;15.20;99.90;;;;;;4858040;29;20492;-74
2021/08/03 04:11:51;;;;;;;8.35;4.85;;;15.20;99.90;;;;;;4859226;29;20046;-74
2021/08/03 04:14:28;;;;;;;9.30;4.90;;;15.20;99.90;;;;;;4858921;29;20044;-74
2021/08/03 04:16:56;;;;;;;6.60;3.95;;;15.20;99.90;;;;;;4858986;29;20069;-73
2021/08/03 04:19:22;;;;;;;7.97;4.68;;;15.20;99.90;;;;;;4857738;29;20573;-74
2021/08/03 04:21:48;;;;;;;7.75;5.47;;;15.20;99.90;;;;;;4859014;29;20113;-74
2021/08/03 04:24:15;;;;;;;8.20;5.10;;;15.10;99.90;;;;;;4858500;29;20042;-74
2021/08/03 04:26:40;;;;;;;10.90;5.63;;;15.20;99.90;;;;;;4858935;29;20034;-74
2021/08/03 04:29:06;;;;;;;9.60;5.72;;;15.10;99.90;;;;;;4857888;29;20101;-74
2021/08/03 04:31:32;;;;;;;8.68;5.65;;;15.10;99.90;;;;;;4858062;29;20045;-73
2021/08/03 04:33:58;;;;;;;9.55;5.28;;;15.20;99.90;;;;;;4858396;29;20069;-74
2021/08/03 04:36:24;;;;;;;9.98;5.88;;;15.20;99.90;;;;;;4842143;29;20140;-74
2021/08/03 04:38:49;;;;;;;7.53;4.22;;;15.20;99.90;;;;;;4858096;29;20037;-74
2021/08/03 04:41:15;;;;;;;8.32;4.35;;;15.20;99.90;;;;;;4858459;29;20036;-74
2021/08/03 04:43:42;;;;;;;9.75;5.60;;;15.30;99.90;;;;;;4857824;29;20098;-74
2021/08/03 04:46:11;;;;;;;7.97;5.13;;;15.20;99.90;;;;;;4849258;29;20038;-74
2021/08/03 04:48:37;;;;;;;9.48;5.40;;;15.30;99.90;;;;;;4857346;29;20584;-74
2021/08/03 04:51:03;;;;;;;10.85;5.43;;;15.30;99.90;;;;;;4856170;29;20038;-74
2021/08/03 04:53:29;;;;;;;9.70;5.88;;;15.30;99.90;;;;;;4856338;29;20037;-75
2021/08/03 04:55:54;;;;;;;9.98;5.47;;;15.20;99.90;;;;;;4856672;29;20065;-74
2021/08/03 04:58:20;;;;;;;10.50;5.65;;;15.20;99.90;;;;;;4855958;29;20121;-74
2021/08/03 05:00:46;;;;;;;9.50;5.57;;;15.30;99.90;;;;;;4856230;29;20034;-74
2021/08/03 05:03:13;;;;;;;8.55;5.38;;;15.30;99.90;;;;;;4856570;29;20562;-74
2021/08/03 05:05:39;;;;;;;8.00;4.82;;;15.40;99.90;;;;;;4857778;29;20041;-75
2021/08/03 05:08:05;;;;;;;8.50;5.15;;;15.50;99.90;;;;;;4857950;29;20073;-73
2021/08/03 05:10:31;;;;;;;9.77;4.65;;;15.50;99.90;;;;;;4857513;29;20080;-74
2021/08/03 05:12:57;;;;;;;7.70;4.82;;;15.50;99.90;;;;;;4863100;29;20079;-75
2021/08/03 05:15:24;;;;;;;11.25;5.25;;;15.50;99.90;;;;;;4859480;29;20389;-77
2021/08/03 05:17:49;;;;;;;10.98;5.07;;;15.50;99.90;;;;;;4857293;29;20198;-76
2021/08/03 05:20:15;;;;;;;8.48;4.68;;;15.50;99.90;;;;;;4857747;29;20041;-76
2021/08/03 05:22:42;;;;;;;11.38;5.25;;;15.50;99.90;;;;;;4841146;29;20045;-77
2021/08/03 05:25:09;;;;;;;10.88;5.63;;;15.60;99.90;;;;;;4850774;29;20041;-77
2021/08/03 05:27:36;;;;;;;8.82;5.25;;;15.60;99.90;;;;;;4843084;29;20037;-77
2021/08/03 05:30:01;;;;;;;8.48;5.03;;;15.60;99.90;;;;;;4853740;29;20049;-77
2021/08/03 05:32:27;;;;;;;11.52;5.70;;;15.60;99.90;;;;;;4854134;29;20045;-77
2021/08/03 05:34:53;;;;;;;10.02;5.57;;;15.60;99.90;;;;;;4854242;29;20131;-77
2021/08/03 05:37:20;;;;;;;9.85;6.13;;;15.70;99.90;;;;;;4853402;29;20040;-77
2021/08/03 05:39:46;;;;;;;10.93;5.55;;;15.70;99.90;;;;;;4854122;29;20033;-77
2021/08/03 05:42:12;;;;;;;8.95;5.40;;;15.70;99.90;;;;;;4852705;29;20049;-77
2021/08/03 05:44:38;;;;;;;12.32;5.63;;;15.80;99.90;;;;;;4854150;29;20041;-77
2021/08/03 05:47:04;;;;;;;8.65;5.32;;;15.90;99.90;;;;;;4842499;29;20034;-77
2021/08/03 05:49:30;;;;;;;7.22;4.55;;;16.00;99.90;;;;;;4834687;29;20695;-77
2021/08/03 05:51:56;;;;;;;13.05;4.90;;;16.10;99.90;;;;;;4844399;29;20101;-77
2021/08/03 05:54:23;;;;;;;11.90;5.47;;;16.20;99.90;;;;;;4851212;29;20045;-77
2021/08/03 05:56:48;;;;;;;6.40;4.10;;;16.30;99.90;;;;;;4850868;29;20186;-77
2021/08/03 05:59:15;;;;;;;9.13;5.00;;;16.40;99.90;;;;;;4852096;29;20116;-77
2021/08/03 06:01:41;;;;;;;7.05;3.95;;;16.50;99.90;;;;;;4851277;29;20493;-77
2021/08/03 06:04:07;;;;;;;6.72;4.10;;;16.60;99.90;;;;;;4851407;29;20100;-77
2021/08/03 06:06:41;;;;;;;6.45;4.07;;;16.70;99.90;;;;;;4853153;29;20048;-77
2021/08/03 06:09:10;;;;;;;;;;;16.90;99.90;;;;;;4853570;29;20056;-77
2021/08/03 06:11:48;;;;;;;7.30;3.47;;;17.10;99.90;;;;;;4852798;29;19912;-77
2021/08/03 06:14:35;;;;;;;8.48;3.78;;;17.10;99.90;;;;;;4852756;29;20150;-77
2021/08/03 06:17:08;;;;;;;6.07;3.70;;;17.10;99.90;;;;;;4852652;29;20070;-77
2021/08/03 06:19:42;;;;;;;6.05;3.97;;;17.20;99.90;;;;;;4852735;29;20069;-77
2021/08/03 06:22:09;;;;;;;7.35;4.35;;;17.00;99.90;;;;;;4853220;29;20121;-77
2021/08/03 06:24:37;;;;;;;7.15;4.40;;;16.90;99.90;;;;;;4851778;29;20095;-77
2021/08/03 06:27:06;;;;;;;5.70;3.60;;;16.80;99.90;;;;;;4850268;29;20065;-77
2021/08/03 06:29:32;;;;;;;6.45;3.55;;;16.70;99.90;;;;;;4844265;29;20113;-77
2021/08/03 06:32:01;;;;;;;5.75;3.28;;;16.70;99.90;;;;;;4853933;29;20056;-77
2021/08/03 06:34:27;;;;;;;5.97;2.35;;;16.80;99.90;;;;;;4854770;29;20034;-77
2021/08/03 06:36:53;;;;;;;5.47;3.17;;;17.00;99.90;;;;;;4854362;29;20540;-77
2021/08/03 06:39:19;;;;;;;4.60;2.10;;;17.00;99.90;;;;;;4855412;29;20088;-79
2021/08/03 06:41:46;;;;;;;5.03;2.10;;;17.10;99.90;;;;;;4860206;29;20526;-79
2021/08/03 06:44:22;;;;;;;5.80;2.88;;;17.20;99.90;;;;;;4854138;29;20052;-78
2021/08/03 06:46:52;;;;;;;8.35;3.33;;;17.20;99.90;;;;;;4852541;29;20409;-78
2021/08/03 06:49:21;;;;;;;5.45;2.75;;;17.10;99.90;;;;;;4855922;29;20855;-82
2021/08/03 06:51:48;;;;;;;4.75;2.65;;;17.20;99.90;;;;;;4852807;29;20049;-81
2021/08/03 06:54:15;;;;;;;5.90;2.50;;;17.20;99.90;;;;;;4848986;29;20038;-80
2021/08/03 06:56:44;;;;;;;5.10;2.88;;;17.40;99.90;;;;;;4853096;29;20677;-80
2021/08/03 06:59:27;;;;;;;5.57;2.70;;;17.50;99.90;;;;;;4843531;29;20080;-81
2021/08/03 07:01:59;;;;;;;7.97;2.75;;;17.60;99.90;;;;;;4839397;29;20072;-81
2021/08/03 07:04:37;;;;;;;9.85;3.50;;;17.70;99.90;;;;;;4846532;29;20038;-81
2021/08/03 07:07:03;;;;;;;4.85;2.55;;;17.60;99.90;;;;;;4849955;29;20038;-80
2021/08/03 07:09:31;;;;;;;5.18;2.80;;;17.70;99.90;;;;;;4852673;29;20386;-81
2021/08/03 07:11:57;;;;;;;7.55;2.95;;;17.80;99.90;;;;;;4854364;29;20038;-81
2021/08/03 07:14:26;;;;;;;7.63;3.35;;;17.80;99.90;;;;;;4853338;29;20076;-79
2021/08/03 07:16:55;;;;;;;7.60;2.42;;;17.90;99.90;;;;;;4850874;29;20633;-80
2021/08/03 07:19:24;;;;;;;8.27;2.95;;;18.00;99.90;;;;;;4851790;29;20373;-81
2021/08/03 07:21:50;;;;;;;6.45;2.72;;;18.10;99.90;;;;;;4843986;29;20482;-79
2021/08/03 07:24:17;;;;;;;5.03;2.60;;;18.10;99.90;;;;;;4851637;29;20057;-79
2021/08/03 07:26:43;;;;;;;6.22;3.42;;;18.20;99.90;;;;;;4851268;29;20654;-79
2021/08/03 07:29:09;;;;;;;5.80;2.95;;;18.10;99.90;;;;;;4848012;29;20061;-80
2021/08/03 07:31:36;;;;;;;5.50;3.30;;;18.10;99.90;;;;;;4853803;29;20046;-82
2021/08/03 07:34:06;;;;;;;5.45;2.75;;;18.20;99.90;;;;;;4852579;29;20041;-77
2021/08/03 07:36:37;;;;;;;4.32;2.42;;;18.20;99.90;;;;;;4853592;29;20651;-79
2021/08/03 07:39:06;;;;;;;5.28;2.15;;;18.20;99.90;;;;;;4852592;29;20041;-79
2021/08/03 07:41:38;;;;;;;7.00;3.00;;;18.40;99.90;;;;;;4846066;29;20037;-78
2021/08/03 07:44:06;;;;;;;10.50;3.88;;;18.50;99.90;;;;;;4856064;29;20053;-78
2021/08/03 07:46:35;;;;;;;13.15;4.25;;;18.50;99.90;;;;;;4837231;29;20104;-79
2021/08/03 07:49:06;;;;;;;7.18;3.10;;;18.30;99.90;;;;;;4850997;29;20076;-77
2021/08/03 07:51:34;;;;;;;5.38;3.05;;;18.10;99.90;;;;;;4838753;29;20042;-80
2021/08/03 07:54:01;;;;;;;5.55;2.90;;;18.10;99.90;;;;;;4836380;29;20050;-81
2021/08/03 07:56:28;;;;;;;4.97;2.95;;;19.00;99.90;;;;;;4842915;29;20046;-83
2021/08/03 07:58:53;;;;;;;6.50;3.92;;;18.70;99.90;;;;;;4837239;29;20241;-82
2021/08/03 08:01:19;;;;;;;7.35;3.03;;;18.40;99.90;;;;;;4835398;29;20183;-82
2021/08/03 08:03:46;;;;;;;10.68;4.40;;;18.30;99.90;;;;;;4844092;29;20041;-81
2021/08/03 08:06:13;;;;;;;6.72;3.22;;;18.10;99.90;;;;;;4844880;29;20198;-83
2021/08/03 08:08:38;;;;;;;6.82;3.42;;;18.20;99.90;;;;;;4836560;29;20117;-83
2021/08/03 08:11:04;;;;;;;12.20;4.55;;;18.30;99.90;;;;;;4836045;29;20046;-85
2021/08/03 08:13:31;;;;;;;7.25;3.55;;;18.50;99.90;;;;;;4849959;29;20049;-83
2021/08/03 08:15:56;;;;;;;8.88;3.15;;;18.50;99.90;;;;;;4847615;29;20045;-83
2021/08/03 08:18:22;;;;;;;6.00;2.88;;;18.40;99.90;;;;;;4854406;29;20049;-84
2021/08/03 08:20:48;;;;;;;5.40;3.10;;;18.30;99.90;;;;;;4846136;29;20034;-81
2021/08/03 08:23:14;;;;;;;4.13;2.70;;;18.40;99.90;;;;;;4854732;29;20037;-81
2021/08/03 08:25:41;;;;;;;6.95;3.13;;;18.60;99.90;;;;;;4855581;29;20037;-83
2021/08/03 08:28:07;;;;;;;16.05;3.15;;;18.80;99.90;;;;;;4857793;29;20037;-83
2021/08/03 08:30:35;;;;;;;6.85;3.70;;;18.80;99.90;;;;;;4871012;29;20052;-79
2021/08/03 08:33:00;;;;;;;11.48;3.53;;;18.90;99.90;;;;;;4854546;29;20034;-84
2021/08/03 08:35:26;;;;;;;91.03;11.80;;;19.10;99.90;;;;;;4856682;29;20034;-83
2021/08/03 08:37:52;;;;;;;4.68;2.65;;;19.10;99.90;;;;;;4856981;29;20037;-85
2021/08/03 08:40:18;;;;;;;6.95;2.78;;;19.20;99.90;;;;;;4857579;29;20038;-86
2021/08/03 08:42:45;;;;;;;9.85;3.55;;;19.20;99.90;;;;;;4857803;29;20493;-84
2021/08/03 08:45:12;;;;;;;5.20;2.85;;;19.30;99.90;;;;;;4857427;29;20442;-84
2021/08/03 08:47:41;;;;;;;5.65;2.88;;;19.30;99.90;;;;;;4857515;29;20095;-81
2021/08/03 08:50:08;;;;;;;5.85;2.78;;;19.30;99.90;;;;;;4857091;29;20686;-85
2021/08/03 08:52:34;;;;;;;5.90;3.00;;;19.40;99.90;;;;;;4841123;29;20084;-83
2021/08/03 08:55:01;;;;;;;8.82;3.50;;;19.30;99.90;;;;;;4858927;29;20400;-84
2021/08/03 08:57:26;;;;;;;4.40;2.45;;;19.30;99.90;;;;;;4857960;29;20041;-84
2021/08/03 08:59:52;;;;;;;4.78;2.65;;;19.30;99.90;;;;;;4859976;29;20033;-83
2021/08/03 09:02:40;;;;;;;4.97;2.60;;;19.10;99.90;;;;;;4857855;29;20057;-82
2021/08/03 09:05:10;;;;;;;7.07;2.15;;;19.30;99.90;;;;;;4855387;29;20136;-81
2021/08/03 09:07:49;;;;;;;3.80;1.85;;;19.40;99.90;;;;;;4841623;29;20049;-80
2021/08/03 09:10:28;;;;;;;6.15;2.33;;;19.90;99.90;;;;;;4857154;29;20621;-82
2021/08/03 09:13:15;;;;;;;3.30;1.60;;;19.80;99.90;;;;;;4856737;29;20109;-82
2021/08/03 09:15:46;;;;;;;5.70;1.38;;;19.50;99.90;;;;;;4858052;29;20474;-78
2021/08/03 09:18:25;;;;;;;10.70;2.03;;;19.50;99.90;;;;;;4857250;29;20092;-79
2021/08/03 09:20:50;;;;;;;3.90;1.20;;;19.80;99.90;;;;;;4856830;29;20061;-78
2021/08/03 09:23:16;;;;;;;3.30;1.45;;;20.10;99.90;;;;;;4856738;29;20144;-77
2021/08/03 09:26:12;;;;;;;4.65;1.42;;;20.20;99.90;;;;;;4856329;29;20046;-78
2021/08/03 09:28:57;;;;;;;7.28;1.65;;;20.20;99.90;;;;;;4844077;29;20110;-79
2021/08/03 09:31:22;;;;;;;3.85;1.45;;;20.10;99.90;;;;;;4855988;29;20037;-77
2021/08/03 09:33:48;;;;;;;5.50;1.70;;;19.60;99.90;;;;;;4856310;29;20531;-81
2021/08/03 09:36:14;;;;;;;4.95;1.50;;;20.20;99.90;;;;;;4860002;29;20064;-78
2021/08/03 09:38:40;;;;;;;2.90;1.35;;;20.00;99.90;;;;;;4856953;29;20041;-79
2021/08/03 09:41:08;;;;;;;5.40;1.30;;;20.40;99.90;;;;;;4856874;29;20647;-79
2021/08/03 09:43:34;;;;;;;3.25;1.05;;;20.30;99.90;;;;;;4859234;29;20078;-80
2021/08/03 09:46:00;;;;;;;5.55;1.00;;;20.20;99.90;;;;;;4857690;29;20030;-79
2021/08/03 09:48:29;;;;;;;3.45;1.10;;;19.70;99.90;;;;;;4856769;29;20162;-79
2021/08/03 09:51:04;;;;;;;4.95;1.45;;;19.40;99.90;;;;;;4856599;29;20754;-79
2021/08/03 09:53:46;;;;;;;3.55;1.55;;;19.40;99.90;;;;;;4856363;29;20041;-79
2021/08/03 09:56:18;;;;;;;3.95;1.50;;;19.10;99.90;;;;;;4837756;29;20041;-79
2021/08/03 09:58:57;;;;;;;5.88;1.40;;;19.20;99.90;;;;;;4838068;29;20056;-79
2021/08/03 10:01:24;;;;;;;4.07;1.70;;;19.00;99.90;;;;;;4837887;29;20046;-79
2021/08/03 10:03:55;;;;;;;2.28;0.95;;;19.00;99.90;;;;;;4838004;29;20073;-79
2021/08/03 10:06:21;;;;;;;3.45;1.33;;;18.80;99.90;;;;;;4837414;29;20038;-79
2021/08/03 10:08:50;;;;;;;4.47;1.35;;;18.90;99.90;;;;;;4837437;29;20072;-79
2021/08/03 10:11:17;;;;;;;4.82;1.20;;;18.90;99.90;;;;;;4837535;29;20753;-79
2021/08/03 10:13:44;;;;;;;3.95;1.45;;;19.00;99.90;;;;;;4837916;29;20065;-79
2021/08/03 10:16:10;;;;;;;3.80;1.05;;;18.90;99.90;;;;;;4837295;29;20465;-79
2021/08/03 10:18:42;;;;;;;3.80;1.65;;;19.10;99.90;;;;;;4837276;29;20501;-79
2021/08/03 10:21:15;;;;;;;8.57;2.17;;;19.20;99.90;;;;;;4837129;29;20042;-79
2021/08/03 10:23:42;;;;;;;3.65;1.33;;;19.50;99.90;;;;;;4837594;29;20038;-79
2021/08/03 10:26:15;;;;;;;4.72;1.30;;;19.70;99.90;;;;;;4837138;29;20061;-79
2021/08/03 10:28:42;;;;;;;3.50;1.40;;;19.70;99.90;;;;;;4837627;29;20520;-79
2021/08/03 10:31:40;;;;;;;3.00;1.50;;;19.50;99.90;;;;;;4837746;29;20073;-79
2021/08/03 10:34:07;;;;;;;3.15;0.90;;;19.10;99.90;;;;;;4825946;29;20042;-79
2021/08/03 10:36:39;;;;;;;3.22;1.58;;;18.90;99.90;;;;;;4836913;29;20114;-77
2021/08/03 10:39:16;;;;;;;3.35;1.17;;;19.00;99.90;;;;;;4836831;29;20038;-77
2021/08/03 10:42:00;;;;;;;3.10;1.13;;;19.10;99.90;;;;;;4837119;29;20033;-77
2021/08/03 10:44:51;;;;;;;3.13;1.20;;;19.10;99.90;;;;;;4836383;29;20049;-77
2021/08/03 10:47:36;;;;;;;2.95;1.23;;;19.20;99.90;;;;;;4836581;29;20037;-77
2021/08/03 10:50:08;;;;;;;2.97;1.38;;;19.10;99.90;;;;;;4836549;29;20046;-77
2021/08/03 10:52:46;;;;;;;2.78;1.10;;;19.10;99.90;;;;;;4836519;29;20544;-77
2021/08/03 10:55:33;;;;;;;4.13;1.60;;;19.10;99.90;;;;;;4836933;29;20045;-79
2021/08/03 10:58:11;;;;;;;2.65;1.15;;;19.20;99.90;;;;;;4840362;29;20038;-79
2021/08/03 11:00:48;;;;;;;3.25;1.33;;;19.10;99.90;;;;;;4838761;29;20034;-80
2021/08/03 11:03:32;;;;;;;3.20;1.20;;;19.30;99.90;;;;;;4839285;29;20145;-80
2021/08/03 11:06:04;;;;;;;2.72;1.42;;;19.40;99.90;;;;;;4838819;29;20121;-80
2021/08/03 11:08:31;;;;;;;2.65;1.00;;;19.50;99.90;;;;;;4838694;29;20076;-80
2021/08/03 11:11:05;;;;;;;5.18;1.27;;;19.50;99.90;;;;;;4839320;29;20107;-80
2021/08/03 11:13:35;;;;;;;2.33;1.13;;;19.30;99.90;;;;;;4838977;29;20038;-80
2021/08/03 11:16:01;;;;;;;3.80;1.42;;;19.20;99.90;;;;;;4838438;29;20120;-80
2021/08/03 11:18:44;;;;;;;2.08;1.00;;;19.10;99.90;;;;;;4837033;29;20125;-80
2021/08/03 11:21:13;;;;;;;2.45;1.27;;;19.20;99.90;;;;;;4836701;29;20042;-80
2021/08/03 11:24:06;;;;;;;2.13;1.05;;;19.10;99.90;;;;;;4837390;29;20098;-80
2021/08/03 11:26:37;;;;;;;1.85;0.90;;;19.30;99.90;;;;;;4837590;29;20038;-80
2021/08/03 11:29:09;;;;;;;2.60;1.40;;;19.40;99.90;;;;;;4840280;29;20081;-80
2021/08/03 11:31:38;;;;;;;3.03;1.50;;;19.40;99.90;;;;;;4837353;29;20041;-80
2021/08/03 11:34:05;;;;;;;5.43;1.55;;;19.60;99.90;;;;;;4837423;29;20042;-80
2021/08/03 11:36:32;;;;;;;4.55;1.30;;;19.60;99.90;;;;;;4837803;29;20509;-80
2021/08/03 11:38:58;;;;;;;3.92;1.40;;;19.60;99.90;;;;;;4836715;29;20049;-80
2021/08/03 11:41:24;;;;;;;4.22;1.30;;;19.80;99.90;;;;;;4837483;29;20034;-80
2021/08/03 11:43:52;;;;;;;2.05;1.10;;;20.30;99.90;;;;;;4838415;29;20562;-84
2021/08/03 11:46:27;;;;;;;5.72;1.48;;;20.40;99.90;;;;;;4837348;29;20122;-83
2021/08/03 11:49:03;;;;;;;5.40;1.38;;;20.70;99.90;;;;;;4831240;29;20050;-84
2021/08/03 11:51:37;;;;;;;3.05;1.50;;;21.20;99.90;;;;;;4838448;29;20064;-82
2021/08/03 11:54:17;;;;;;;4.28;1.17;;;21.50;99.90;;;;;;4837797;29;20074;-80
2021/08/03 11:56:44;;;;;;;2.88;1.17;;;21.50;99.90;;;;;;4854977;29;20396;-80
2021/08/03 11:59:13;;;;;;;4.20;1.25;;;21.20;99.90;;;;;;4857908;29;20594;-80
2021/08/03 12:01:52;;;;;;;1.77;0.93;;;21.10;99.90;;;;;;4841964;29;20126;-81
2021/08/03 12:04:22;;;;;;;2.50;1.20;;;21.60;99.90;;;;;;4858277;29;20038;-80
2021/08/03 12:06:49;;;;;;;2.53;1.17;;;21.60;99.90;;;;;;4858029;29;20088;-80
2021/08/03 12:09:17;;;;;;;2.53;1.13;;;21.50;99.90;;;;;;4858445;29;20049;-81
2021/08/03 12:11:44;;;;;;;2.28;1.20;;;21.50;99.90;;;;;;4857902;29;20052;-80
2021/08/03 12:14:12;;;;;;;2.88;1.00;;;21.50;99.90;;;;;;4857609;29;20400;-80
2021/08/03 12:16:42;;;;;;;3.30;1.38;;;21.70;99.90;;;;;;4858043;29;20126;-80
2021/08/03 12:19:30;;;;;;;2.25;0.90;;;21.70;99.90;;;;;;4858054;29;20579;-80
2021/08/03 12:21:56;;;;;;;2.58;1.25;;;21.90;99.90;;;;;;4857607;29;20054;-80
2021/08/03 12:24:22;;;;;;;3.58;1.20;;;22.00;99.90;;;;;;4857654;29;20190;-80
2021/08/03 12:26:48;;;;;;;4.30;1.75;;;22.20;99.90;;;;;;4857554;29;20729;-80
2021/08/03 12:29:14;;;;;;;4.20;1.67;;;22.40;99.90;;;;;;4857340;29;20050;-80
2021/08/03 12:31:42;;;;;;;2.60;1.30;;;22.10;99.90;;;;;;4857386;29;20025;-80
2021/08/03 12:34:13;;;;;;;2.85;1.25;;;21.80;99.90;;;;;;4857189;29;20104;-80
2021/08/03 12:36:47;;;;;;;2.22;1.00;;;21.70;99.90;;;;;;4857322;29;20046;-80
2021/08/03 12:39:19;;;;;;;10.20;1.50;;;21.50;99.90;;;;;;4857081;29;20041;-80
2021/08/03 12:44:48;;;;;;;2.22;1.27;;;21.50;99.90;;;;;;4857338;29;20430;-80
2021/08/03 12:47:26;;;;;;;2.55;1.08;;;21.70;99.90;;;;;;4857372;29;20045;-80
2021/08/03 12:50:01;;;;;;;2.75;1.23;;;21.90;99.90;;;;;;4857186;29;20099;-80
2021/08/03 12:52:27;;;;;;;3.35;1.27;;;22.00;99.90;;;;;;4856999;29;20133;-80
2021/08/03 12:55:20;;;;;;;4.25;1.23;;;22.10;99.90;;;;;;4857098;29;20482;-80
2021/08/03 12:57:55;;;;;;;3.50;1.40;;;22.40;99.90;;;;;;4846944;29;20072;-80
2021/08/03 13:00:32;;;;;;;3.08;1.35;;;22.80;99.90;;;;;;4857559;29;20080;-80
2021/08/03 13:02:59;;;;;;;2.95;1.17;;;22.60;99.90;;;;;;4857566;29;20045;-80